NCAR-RAP Real-Time Weather Data

Output produced by METARs form (25 August 2019  22:48 UTC)
found at http://weather.rap.ucar.edu/surface/
 
Conditions at: KTYQ observed 25 August 2019  22:35 UTC
Temperature: 24.3°C (76°F)
Dewpoint: 14.1°C (57°F) [RH = 53%]
Pressure (altimeter): 30.00 inches Hg (1016.0 mb)
Winds: from the ESE (120 degrees) at 6 MPH (5 knots; 2.6 m/s)
Visibility: 10 or more miles (16+ km)
Ceiling: at least 12,000 feet AGL
Clouds: sky clear below 12,000 feet AGL
Present Weather: automated observation with no human augmentation;
there may or may not be significant weather present at this time
KTYQ 252235Z AUTO 12005KT 10SM CLR 24/14 A3000 RMK AO2 T02430141